createdAt,value
2022-09-02T00:02:27.303Z,0.90
2022-09-02T00:04:55.741Z,1.00
2022-09-02T00:07:24.105Z,1.00
2022-09-02T00:09:52.578Z,1.10
2022-09-02T00:12:20.922Z,1.10
2022-09-02T00:14:49.377Z,1.10
2022-09-02T00:17:17.765Z,1.30
2022-09-02T00:19:46.065Z,1.50
2022-09-02T00:22:14.442Z,1.50
2022-09-02T00:24:42.745Z,1.60
2022-09-02T00:27:11.120Z,1.40
2022-09-02T00:29:39.994Z,1.50
2022-09-02T00:32:08.381Z,1.60
2022-09-02T00:34:36.793Z,1.20
2022-09-02T00:37:05.377Z,2.00
2022-09-02T00:39:34.217Z,1.60
2022-09-02T00:42:03.940Z,1.80
2022-09-02T00:44:34.209Z,1.60
2022-09-02T00:47:02.615Z,1.40
2022-09-02T00:49:35.248Z,1.40
2022-09-02T00:52:30.163Z,1.40
2022-09-02T00:55:04.648Z,1.40
2022-09-02T00:57:39.167Z,1.30
2022-09-02T01:00:13.781Z,1.30
2022-09-02T01:02:42.480Z,1.50
2022-09-02T01:05:14.979Z,1.30
2022-09-02T01:07:44.929Z,1.20
2022-09-02T01:10:20.731Z,1.50
2022-09-02T01:12:49.823Z,1.20
2022-09-02T01:15:18.147Z,1.30
2022-09-02T01:17:50.469Z,1.40
2022-09-02T01:20:27.060Z,1.30
2022-09-02T01:22:57.391Z,1.50
2022-09-02T01:25:33.519Z,1.30
2022-09-02T01:28:09.839Z,1.30
2022-09-02T01:30:42.363Z,1.40
2022-09-02T01:33:11.712Z,1.20
2022-09-02T01:35:40.595Z,1.20
2022-09-02T01:38:09.831Z,1.40
2022-09-02T01:40:39.187Z,1.50
2022-09-02T01:43:12.435Z,1.40
2022-09-02T01:45:43.049Z,1.20
2022-09-02T01:48:14.450Z,1.10
2022-09-02T01:50:57.851Z,1.20
2022-09-02T01:53:27.267Z,1.10
2022-09-02T01:55:56.147Z,1.00
2022-09-02T01:58:24.952Z,0.90
2022-09-02T02:00:53.339Z,1.60
2022-09-02T02:03:21.966Z,1.00
2022-09-02T02:05:50.896Z,1.00
2022-09-02T02:08:20.459Z,0.80
2022-09-02T02:10:48.787Z,1.00
2022-09-02T02:13:16.939Z,0.70
2022-09-02T02:15:46.086Z,0.90
2022-09-02T02:18:14.609Z,0.80
2022-09-02T02:20:42.943Z,0.80
2022-09-02T02:23:13.905Z,0.90
2022-09-02T02:25:42.119Z,0.90
2022-09-02T02:28:11.943Z,0.80
2022-09-02T02:30:40.715Z,1.30
2022-09-02T02:33:10.567Z,0.70
2022-09-02T02:35:39.347Z,0.90
2022-09-02T02:38:08.667Z,0.80
2022-09-02T02:40:37.650Z,2.50
2022-09-02T02:43:06.633Z,2.70
2022-09-02T02:45:35.048Z,2.80
2022-09-02T02:48:03.796Z,3.00
2022-09-02T02:50:33.672Z,3.30
2022-09-02T02:53:03.473Z,3.30
2022-09-02T02:55:32.060Z,3.20
2022-09-02T02:58:01.713Z,3.80
2022-09-02T03:00:33.417Z,3.30
2022-09-02T03:03:07.610Z,3.30
2022-09-02T03:05:38.028Z,3.40
2022-09-02T03:08:10.353Z,3.30
2022-09-02T03:10:42.141Z,3.20
2022-09-02T03:13:12.242Z,3.30
2022-09-02T03:15:40.729Z,3.40
2022-09-02T03:18:09.893Z,3.40
2022-09-02T03:20:40.954Z,3.30
2022-09-02T03:23:12.683Z,3.00
2022-09-02T03:25:45.090Z,2.50
2022-09-02T03:28:28.315Z,2.60
2022-09-02T03:30:57.670Z,2.40
2022-09-02T03:33:27.558Z,2.50
2022-09-02T03:35:57.242Z,2.50
2022-09-02T03:38:26.710Z,2.50
2022-09-02T03:40:55.254Z,2.90
2022-09-02T03:43:23.862Z,2.80
2022-09-02T03:45:52.301Z,2.60
2022-09-02T03:48:23.418Z,3.30
2022-09-02T03:50:51.818Z,2.60
2022-09-02T03:53:21.536Z,2.50
2022-09-02T03:58:25.882Z,2.60
2022-09-02T04:00:55.046Z,2.70
2022-09-02T04:03:24.699Z,2.70
2022-09-02T04:05:53.486Z,2.80
2022-09-02T04:08:23.994Z,3.70
2022-09-02T04:10:53.238Z,4.70
2022-09-02T04:13:21.702Z,2.50
2022-09-02T04:15:50.317Z,2.80
2022-09-02T04:18:21.386Z,3.20
2022-09-02T04:20:51.426Z,3.10
2022-09-02T04:23:20.479Z,3.60
2022-09-02T04:25:49.301Z,3.60
2022-09-02T04:28:18.304Z,3.10
2022-09-02T04:30:49.011Z,3.60
2022-09-02T04:33:18.196Z,4.00
2022-09-02T04:35:49.493Z,4.50
2022-09-02T04:38:19.018Z,4.70
2022-09-02T04:40:48.184Z,4.40
2022-09-02T04:43:18.417Z,3.90
2022-09-02T04:45:47.842Z,4.30
2022-09-02T04:48:19.242Z,4.00
2022-09-02T04:50:49.221Z,3.90
2022-09-02T04:53:18.706Z,4.10
2022-09-02T04:55:48.056Z,4.30
2022-09-02T04:58:17.144Z,4.40
2022-09-02T05:00:47.244Z,4.30
2022-09-02T05:03:16.449Z,3.90
2022-09-02T05:05:45.388Z,3.90
2022-09-02T05:08:14.621Z,3.80
2022-09-02T05:10:48.458Z,3.40
2022-09-02T05:13:20.231Z,3.40
2022-09-02T05:15:49.091Z,4.30
2022-09-02T05:18:17.967Z,3.80
2022-09-02T05:20:46.457Z,3.90
2022-09-02T05:23:16.636Z,4.00
2022-09-02T05:25:45.972Z,4.20
2022-09-02T05:28:16.772Z,3.70
2022-09-02T05:30:45.251Z,4.30
2022-09-02T05:33:15.132Z,4.50
2022-09-02T05:35:47.112Z,4.70
2022-09-02T05:40:47.987Z,5.70
2022-09-02T05:43:16.424Z,9.20
2022-09-02T05:45:44.979Z,7.60
2022-09-02T05:48:32.900Z,6.20
2022-09-02T05:51:05.907Z,5.60
2022-09-02T05:53:35.400Z,5.00
2022-09-02T05:56:05.341Z,6.40
2022-09-02T05:58:33.897Z,6.00
2022-09-02T06:01:14.445Z,6.80
2022-09-02T06:03:42.933Z,8.10
2022-09-02T06:06:11.525Z,7.40
2022-09-02T06:08:41.482Z,7.40
2022-09-02T06:11:12.240Z,7.00
2022-09-02T06:13:42.509Z,6.40
2022-09-02T06:16:16.098Z,4.70
2022-09-02T06:18:46.577Z,4.40
2022-09-02T06:21:15.810Z,4.30
2022-09-02T06:23:46.190Z,4.10
2022-09-02T06:26:17.020Z,4.20
2022-09-02T06:28:46.503Z,3.40
2022-09-02T06:31:20.007Z,3.50
2022-09-02T06:33:52.811Z,3.40
2022-09-02T06:36:28.446Z,3.50
2022-09-02T06:38:59.318Z,3.30
2022-09-02T06:41:32.145Z,3.60
2022-09-02T06:44:06.981Z,2.70
2022-09-02T06:46:43.443Z,3.30
2022-09-02T06:49:16.495Z,2.70
2022-09-02T06:51:48.917Z,2.60
2022-09-02T06:54:20.710Z,2.30
2022-09-02T06:56:51.332Z,2.80
2022-09-02T06:59:23.582Z,2.70
2022-09-02T07:01:58.258Z,2.80
2022-09-02T07:04:46.068Z,2.40
2022-09-02T07:07:16.789Z,2.20
2022-09-02T07:09:51.497Z,2.30
2022-09-02T07:12:19.982Z,2.20
2022-09-02T07:14:54.398Z,1.90
2022-09-02T07:17:26.333Z,1.80
2022-09-02T07:20:00.561Z,1.90
2022-09-02T07:22:31.484Z,1.80
2022-09-02T07:25:02.342Z,1.80
2022-09-02T07:27:31.609Z,2.50
2022-09-02T07:30:00.700Z,3.20
2022-09-02T07:32:29.536Z,3.70
2022-09-02T07:34:58.332Z,3.50
2022-09-02T07:37:26.718Z,3.90
2022-09-02T07:39:55.441Z,3.70
2022-09-02T07:42:24.874Z,4.00
2022-09-02T07:44:53.869Z,3.90
2022-09-02T07:47:22.741Z,3.50
2022-09-02T07:52:40.172Z,3.90
2022-09-02T07:55:14.641Z,3.80
2022-09-02T07:57:43.894Z,2.70
2022-09-02T08:00:14.174Z,2.60
2022-09-02T08:02:44.774Z,2.00
2022-09-02T08:05:16.444Z,1.90
2022-09-02T08:07:45.302Z,1.30
2022-09-02T08:10:15.083Z,1.70
2022-09-02T08:12:44.513Z,1.00
2022-09-02T08:15:14.117Z,0.80
2022-09-02T08:17:43.518Z,0.70
2022-09-02T08:20:16.790Z,0.90
2022-09-02T08:22:48.952Z,1.20
2022-09-02T08:25:24.372Z,1.10
2022-09-02T08:30:24.304Z,1.80
2022-09-02T08:32:52.873Z,1.50
2022-09-02T08:35:21.866Z,3.30
2022-09-02T08:37:50.260Z,5.60
2022-09-02T08:40:23.023Z,3.80
2022-09-02T08:42:56.162Z,1.70
2022-09-02T08:45:27.752Z,1.00
2022-09-02T08:48:08.548Z,0.70
2022-09-02T08:50:39.916Z,0.70
2022-09-02T08:53:21.664Z,0.80
2022-09-02T08:55:56.962Z,0.70
2022-09-02T08:58:32.507Z,0.70
2022-09-02T09:01:09.547Z,0.50
2022-09-02T09:04:00.485Z,0.60
2022-09-02T09:06:55.190Z,0.70
2022-09-02T09:09:45.110Z,0.60
2022-09-02T09:12:33.114Z,0.50
2022-09-02T09:15:29.691Z,1.90
2022-09-02T09:18:01.786Z,1.70
2022-09-02T09:20:33.698Z,1.90
2022-09-02T09:23:11.963Z,0.90
2022-09-02T09:25:41.205Z,0.90
2022-09-02T09:28:09.711Z,0.60
2022-09-02T09:30:41.202Z,0.70
2022-09-02T09:33:15.761Z,0.70
2022-09-02T09:35:54.354Z,0.60
2022-09-02T09:38:31.590Z,0.90
2022-09-02T09:41:29.148Z,0.60
2022-09-02T09:43:58.140Z,0.70
2022-09-02T09:46:34.382Z,0.70
2022-09-02T09:49:02.928Z,0.60
2022-09-02T09:51:31.319Z,0.60
2022-09-02T09:54:18.426Z,0.40
2022-09-02T09:56:47.026Z,0.50
2022-09-02T09:59:43.141Z,0.60
2022-09-02T10:02:31.117Z,0.60
2022-09-02T10:05:17.333Z,0.60
2022-09-02T10:07:55.849Z,0.80
2022-09-02T10:10:27.391Z,0.60
2022-09-02T10:13:00.462Z,0.80
2022-09-02T10:15:45.127Z,0.80
2022-09-02T10:18:32.406Z,0.70
2022-09-02T10:21:28.931Z,0.80
2022-09-02T10:24:15.853Z,0.50
2022-09-02T10:26:49.539Z,0.80
2022-09-02T10:32:23.385Z,0.60
2022-09-02T10:34:57.654Z,0.60
2022-09-02T10:37:35.726Z,1.10
2022-09-02T10:40:17.351Z,1.10
2022-09-02T10:43:12.010Z,1.10
2022-09-02T10:45:48.307Z,1.20
2022-09-02T10:48:53.753Z,1.00
2022-09-02T10:51:42.699Z,1.00
2022-09-02T10:54:28.595Z,0.80
2022-09-02T10:57:11.556Z,0.80
2022-09-02T10:59:54.272Z,0.50
2022-09-02T11:02:35.446Z,0.70
2022-09-02T11:05:19.985Z,0.60
2022-09-02T11:08:03.932Z,0.50
2022-09-02T11:10:39.033Z,0.40
2022-09-02T11:13:20.219Z,0.30
2022-09-02T11:16:07.681Z,0.30
2022-09-02T11:18:49.961Z,0.30
2022-09-02T11:21:31.875Z,0.40
2022-09-02T11:24:15.614Z,0.20
2022-09-02T11:27:25.931Z,0.30
2022-09-02T11:33:05.065Z,0.40
2022-09-02T11:35:39.056Z,0.40
2022-09-02T11:38:44.261Z,0.30
2022-09-02T11:41:43.537Z,0.40
2022-09-02T11:44:26.918Z,0.30
2022-09-02T11:47:41.908Z,0.20
2022-09-02T11:50:39.622Z,0.30
2022-09-02T11:53:20.827Z,0.40
2022-09-02T11:56:29.277Z,0.40
2022-09-02T11:58:57.849Z,0.50
2022-09-02T12:01:35.085Z,0.40
2022-09-02T12:07:08.599Z,0.30
2022-09-02T12:09:49.708Z,0.20
2022-09-02T12:12:47.795Z,0.40
2022-09-02T12:15:20.024Z,0.30
2022-09-02T12:17:48.762Z,0.30
2022-09-02T12:20:39.323Z,0.40
2022-09-02T12:23:10.229Z,0.40
2022-09-02T12:25:49.870Z,0.30
2022-09-02T12:28:24.068Z,0.20
2022-09-02T12:30:56.714Z,0.30
2022-09-02T12:33:34.730Z,0.30
2022-09-02T12:36:05.867Z,0.30
2022-09-02T12:38:34.531Z,0.20
2022-09-02T12:41:05.844Z,0.40
2022-09-02T12:43:44.683Z,0.30
2022-09-02T12:46:45.614Z,0.30
2022-09-02T12:49:27.553Z,0.30
2022-09-02T12:52:01.725Z,0.30
2022-09-02T12:54:38.789Z,0.50
2022-09-02T12:57:08.597Z,0.30
2022-09-02T12:59:41.829Z,0.50
2022-09-02T13:02:37.424Z,0.40
2022-09-02T13:05:35.717Z,0.30
2022-09-02T13:08:07.060Z,0.30
2022-09-02T13:10:59.348Z,0.50
2022-09-02T13:13:55.283Z,0.30
2022-09-02T13:16:35.438Z,0.40
2022-09-02T13:19:28.379Z,0.30
2022-09-02T13:22:35.284Z,0.40
2022-09-02T13:25:13.323Z,0.30
2022-09-02T13:28:07.211Z,0.30
2022-09-02T13:31:03.144Z,0.30
2022-09-02T13:33:31.571Z,0.30
2022-09-02T13:36:00.324Z,0.50
2022-09-02T13:38:31.060Z,0.30
2022-09-02T13:40:59.674Z,0.30
2022-09-02T13:43:28.487Z,0.30
2022-09-02T13:46:02.179Z,0.30
2022-09-02T13:48:33.909Z,0.30
2022-09-02T13:51:22.464Z,0.30
2022-09-02T13:54:21.688Z,0.20
2022-09-02T13:56:40.004Z,0.30
2022-09-02T13:59:09.217Z,0.30
2022-09-02T14:01:40.325Z,0.50
2022-09-02T14:04:15.743Z,0.30
2022-09-02T14:06:47.914Z,0.30
2022-09-02T14:09:25.972Z,0.30
2022-09-02T14:11:55.257Z,0.30
2022-09-02T14:14:25.825Z,0.30
2022-09-02T14:17:24.189Z,0.30
2022-09-02T14:20:09.161Z,0.60
2022-09-02T14:22:37.613Z,0.30
2022-09-02T14:25:16.980Z,0.40
2022-09-02T14:27:57.456Z,0.20
2022-09-02T14:30:34.774Z,0.20
2022-09-02T14:33:25.269Z,0.40
2022-09-02T14:36:08.147Z,0.30
2022-09-02T14:38:38.716Z,0.30
2022-09-02T14:41:28.433Z,0.40
2022-09-02T14:44:23.164Z,0.30
2022-09-02T14:46:55.140Z,0.30
2022-09-02T14:49:28.945Z,0.30
2022-09-02T14:52:03.804Z,0.30
2022-09-02T14:54:42.337Z,0.30
2022-09-02T14:57:21.505Z,0.40
2022-09-02T14:59:51.402Z,0.30
2022-09-02T15:02:28.550Z,0.40
2022-09-02T15:05:07.448Z,0.30
2022-09-02T15:07:35.786Z,0.30
2022-09-02T15:10:04.306Z,0.30
2022-09-02T15:12:34.236Z,0.40
2022-09-02T15:15:02.522Z,0.40
2022-09-02T15:17:31.174Z,0.60
2022-09-02T15:19:59.626Z,0.50
2022-09-02T15:22:28.530Z,0.30
2022-09-02T15:24:58.070Z,0.50
2022-09-02T15:27:26.606Z,0.40
2022-09-02T15:29:55.850Z,0.30
2022-09-02T15:32:27.195Z,0.50
2022-09-02T15:34:55.736Z,0.50
2022-09-02T15:37:24.431Z,0.90
2022-09-02T15:39:52.952Z,0.70
2022-09-02T15:42:21.374Z,0.60
2022-09-02T15:44:49.866Z,0.50
2022-09-02T15:47:18.186Z,0.40
2022-09-02T15:49:46.626Z,0.50
2022-09-02T15:52:14.998Z,0.30
2022-09-02T15:54:43.375Z,0.70
2022-09-02T15:57:11.801Z,0.40
2022-09-02T15:59:40.404Z,0.40
2022-09-02T16:02:08.730Z,0.40
2022-09-02T16:04:37.269Z,0.70
2022-09-02T16:07:05.639Z,0.50
2022-09-02T16:09:34.372Z,0.40
2022-09-02T16:12:03.490Z,0.40
2022-09-02T16:14:32.222Z,0.20
2022-09-02T16:17:00.755Z,0.30
2022-09-02T16:19:30.571Z,0.40
2022-09-02T16:21:59.302Z,0.30
2022-09-02T16:24:28.044Z,0.20
2022-09-02T16:26:56.333Z,0.40
2022-09-02T16:29:28.144Z,0.40
2022-09-02T16:32:14.499Z,0.50
2022-09-02T16:34:46.933Z,0.30
2022-09-02T16:37:15.509Z,0.30
2022-09-02T16:39:44.154Z,0.30
2022-09-02T16:42:12.652Z,0.40
2022-09-02T16:44:41.732Z,0.50
2022-09-02T16:47:11.722Z,0.30
2022-09-02T16:49:41.234Z,0.40
2022-09-02T16:52:09.960Z,0.40
2022-09-02T16:54:41.100Z,0.50
2022-09-02T16:57:11.389Z,0.30
2022-09-02T16:59:40.085Z,0.40
2022-09-02T17:02:08.544Z,0.40
2022-09-02T17:04:38.586Z,0.40
2022-09-02T17:07:07.105Z,0.50
2022-09-02T17:09:36.721Z,0.50
2022-09-02T17:12:05.213Z,0.50
2022-09-02T17:14:34.599Z,0.40
2022-09-02T17:17:03.207Z,0.80
2022-09-02T17:19:33.274Z,0.90
2022-09-02T17:22:01.619Z,1.10
2022-09-02T17:24:31.787Z,1.20
2022-09-02T17:27:01.425Z,1.60
2022-09-02T17:32:20.587Z,2.00
2022-09-02T17:34:49.994Z,1.90
2022-09-02T17:37:19.606Z,1.90
2022-09-02T17:39:51.388Z,3.40
2022-09-02T17:42:21.677Z,2.70
2022-09-02T17:44:50.413Z,1.60
2022-09-02T17:47:22.904Z,3.60
2022-09-02T17:49:52.097Z,1.40
2022-09-02T17:52:24.808Z,1.30
2022-09-02T17:54:54.586Z,1.30
2022-09-02T17:57:32.803Z,1.20
2022-09-02T18:00:14.676Z,1.60
2022-09-02T18:02:55.312Z,3.80
2022-09-02T18:05:28.882Z,1.10
2022-09-02T18:10:35.456Z,1.00
2022-09-02T18:13:08.358Z,1.00
2022-09-02T18:15:43.526Z,0.90
2022-09-02T18:18:16.138Z,0.90
2022-09-02T18:20:55.182Z,1.00
2022-09-02T18:23:47.467Z,1.20
2022-09-02T18:26:45.165Z,1.60
2022-09-02T18:29:58.622Z,1.30
2022-09-02T18:33:02.900Z,1.40
2022-09-02T18:35:46.065Z,1.40
2022-09-02T18:38:14.844Z,1.40
2022-09-02T18:40:47.877Z,1.40
2022-09-02T18:43:47.683Z,1.40
2022-09-02T18:46:18.174Z,1.70
2022-09-02T18:48:53.318Z,1.50
2022-09-02T18:51:39.491Z,1.20
2022-09-02T18:54:31.047Z,1.20
2022-09-02T18:57:05.565Z,1.10
2022-09-02T18:59:40.998Z,1.10
2022-09-02T19:02:46.737Z,1.10
2022-09-02T19:05:26.069Z,1.10
2022-09-02T19:08:23.040Z,1.00
2022-09-02T19:11:07.575Z,1.10
2022-09-02T19:13:48.490Z,1.00
2022-09-02T19:16:28.714Z,1.10
2022-09-02T19:18:57.733Z,1.00
2022-09-02T19:21:43.699Z,1.10
2022-09-02T19:24:34.197Z,1.00
2022-09-02T19:27:07.356Z,1.00
2022-09-02T19:29:41.505Z,1.20
2022-09-02T19:32:13.225Z,1.10
2022-09-02T19:34:45.203Z,1.00
2022-09-02T19:37:14.610Z,0.90
2022-09-02T19:39:43.154Z,1.30
2022-09-02T19:42:11.699Z,1.00
2022-09-02T19:44:40.229Z,1.10
2022-09-02T19:50:00.559Z,1.10
2022-09-02T19:52:49.572Z,1.20
2022-09-02T19:55:18.988Z,0.90
2022-09-02T19:57:47.995Z,1.30
2022-09-02T20:00:16.948Z,1.30
2022-09-02T20:02:45.312Z,1.10
2022-09-02T20:05:14.184Z,1.20
2022-09-02T20:07:42.749Z,1.40
2022-09-02T20:10:11.708Z,1.40
2022-09-02T20:12:40.115Z,1.10
2022-09-02T20:15:10.016Z,1.10
2022-09-02T20:17:38.355Z,1.00
2022-09-02T20:20:16.502Z,1.00
2022-09-02T20:22:47.772Z,1.00
2022-09-02T20:25:16.483Z,0.90
2022-09-02T20:28:02.739Z,1.00
2022-09-02T20:30:38.379Z,1.00
2022-09-02T20:33:18.015Z,1.00
2022-09-02T20:36:11.387Z,1.00
2022-09-02T20:38:56.314Z,1.20
2022-09-02T20:41:48.002Z,1.20
2022-09-02T20:44:24.993Z,1.10
2022-09-02T20:47:20.562Z,3.00
2022-09-02T20:50:33.777Z,1.40
2022-09-02T20:53:26.111Z,1.10
2022-09-02T20:56:02.211Z,1.00
2022-09-02T20:58:51.828Z,1.20
2022-09-02T21:01:27.449Z,1.10
2022-09-02T21:04:06.752Z,0.90
2022-09-02T21:06:41.288Z,0.70
2022-09-02T21:09:21.366Z,0.90
2022-09-02T21:11:58.748Z,1.20
2022-09-02T21:14:35.197Z,1.00
2022-09-02T21:17:14.364Z,0.80
2022-09-02T21:19:56.852Z,0.80
2022-09-02T21:22:30.940Z,0.70
2022-09-02T21:25:27.997Z,0.90
2022-09-02T21:28:08.220Z,1.00
2022-09-02T21:30:43.632Z,0.80
2022-09-02T21:33:16.172Z,0.80
2022-09-02T21:35:53.059Z,0.90
2022-09-02T21:38:37.232Z,1.10
2022-09-02T21:41:24.260Z,1.00
2022-09-02T21:44:23.384Z,0.90
2022-09-02T21:47:15.519Z,1.30
2022-09-02T21:49:56.828Z,0.90
2022-09-02T21:52:44.224Z,0.90
2022-09-02T21:55:15.707Z,0.80
2022-09-02T21:58:43.836Z,0.80
2022-09-02T22:01:27.206Z,1.00
2022-09-02T22:04:04.218Z,1.20
2022-09-02T22:06:41.060Z,1.00
2022-09-02T22:09:18.783Z,1.10
2022-09-02T22:11:59.223Z,1.10
2022-09-02T22:14:46.299Z,1.20
2022-09-02T22:17:22.870Z,1.10
2022-09-02T22:19:56.633Z,1.10
2022-09-02T22:24:58.151Z,1.10
2022-09-02T22:27:34.375Z,1.30
2022-09-02T22:30:17.091Z,1.40
2022-09-02T22:32:50.704Z,1.20
2022-09-02T22:35:27.965Z,1.20
2022-09-02T22:38:01.514Z,1.20
2022-09-02T22:40:40.434Z,1.20
2022-09-02T22:43:12.798Z,1.10
2022-09-02T22:46:07.282Z,1.40
2022-09-02T22:49:00.950Z,1.50
2022-09-02T22:52:04.110Z,1.00
2022-09-02T22:54:32.511Z,1.10
2022-09-02T22:57:28.158Z,1.10
2022-09-02T23:00:12.160Z,1.00
2022-09-02T23:05:47.928Z,1.00
2022-09-02T23:08:21.851Z,0.90
2022-09-02T23:11:00.597Z,1.20
2022-09-02T23:13:47.852Z,0.80
2022-09-02T23:16:53.692Z,0.90
2022-09-02T23:19:56.616Z,0.60
2022-09-02T23:23:03.636Z,0.50
2022-09-02T23:25:47.790Z,0.50
2022-09-02T23:28:28.332Z,0.60
2022-09-02T23:31:10.329Z,0.60
2022-09-02T23:33:59.196Z,0.70
2022-09-02T23:36:52.400Z,0.60
2022-09-02T23:39:44.434Z,0.90
2022-09-02T23:42:13.836Z,0.70
2022-09-02T23:44:42.872Z,0.80
2022-09-02T23:47:37.840Z,0.60
2022-09-02T23:50:06.315Z,0.80
2022-09-02T23:53:03.170Z,0.60
2022-09-02T23:55:43.898Z,0.90
2022-09-02T23:58:12.147Z,0.80
